sensor_id;sensor_type;location;lat;lon;timestamp;temperature;humidity
18894;DHT22;9579;49.488;8.226;2024-02-21T00:02:14;11.40;99.90
18894;DHT22;9579;49.488;8.226;2024-02-21T00:05:01;11.20;99.90
18894;DHT22;9579;49.488;8.226;2024-02-21T00:07:49;11.10;99.90
18894;DHT22;9579;49.488;8.226;2024-02-21T00:10:36;11.10;99.90
18894;DHT22;9579;49.488;8.226;2024-02-21T00:13:24;11.60;99.90
18894;DHT22;9579;49.488;8.226;2024-02-21T00:16:11;11.00;99.90
18894;DHT22;9579;49.488;8.226;2024-02-21T00:18:59;11.30;99.90
18894;DHT22;9579;49.488;8.226;2024-02-21T00:21:46;11.00;99.90
18894;DHT22;9579;49.488;8.226;2024-02-21T00:24:35;10.90;99.90
18894;DHT22;9579;49.488;8.226;2024-02-21T00:27:22;10.90;99.90
18894;DHT22;9579;49.488;8.226;2024-02-21T00:30:10;11.00;99.90
18894;DHT22;9579;49.488;8.226;2024-02-21T00:32:57;11.00;99.90
18894;DHT22;9579;49.488;8.226;2024-02-21T00:35:44;11.00;99.90
18894;DHT22;9579;49.488;8.226;2024-02-21T00:38:31;11.00;99.90
18894;DHT22;9579;49.488;8.226;2024-02-21T00:41:20;10.90;99.90
18894;DHT22;9579;49.488;8.226;2024-02-21T00:44:07;10.90;99.90
18894;DHT22;9579;49.488;8.226;2024-02-21T00:46:55;11.00;99.90
18894;DHT22;9579;49.488;8.226;2024-02-21T00:49:42;11.20;99.90
18894;DHT22;9579;49.488;8.226;2024-02-21T00:52:29;11.20;99.90
18894;DHT22;9579;49.488;8.226;2024-02-21T00:55:16;11.30;99.90
18894;DHT22;9579;49.488;8.226;2024-02-21T00:58:04;11.20;99.90
18894;DHT22;9579;49.488;8.226;2024-02-21T01:00:51;11.20;99.90
18894;DHT22;9579;49.488;8.226;2024-02-21T01:03:39;11.20;99.90
18894;DHT22;9579;49.488;8.226;2024-02-21T01:06:26;11.00;99.90
18894;DHT22;9579;49.488;8.226;2024-02-21T01:09:14;11.20;99.90
18894;DHT22;9579;49.488;8.226;2024-02-21T01:12:01;11.10;99.90
18894;DHT22;9579;49.488;8.226;2024-02-21T01:14:49;12.30;99.90
18894;DHT22;9579;49.488;8.226;2024-02-21T01:17:36;11.00;99.90
18894;DHT22;9579;49.488;8.226;2024-02-21T01:20:23;11.10;99.90
18894;DHT22;9579;49.488;8.226;2024-02-21T01:23:11;12.60;99.90
18894;DHT22;9579;49.488;8.226;2024-02-21T01:25:58;11.00;99.90
18894;DHT22;9579;49.488;8.226;2024-02-21T01:28:45;12.50;99.90
18894;DHT22;9579;49.488;8.226;2024-02-21T01:31:33;12.10;99.90
18894;DHT22;9579;49.488;8.226;2024-02-21T01:34:20;11.30;99.90
18894;DHT22;9579;49.488;8.226;2024-02-21T01:37:07;10.80;99.90
18894;DHT22;9579;49.488;8.226;2024-02-21T01:39:55;11.20;99.90
18894;DHT22;9579;49.488;8.226;2024-02-21T01:42:42;11.60;99.90
18894;DHT22;9579;49.488;8.226;2024-02-21T01:45:29;11.60;99.90
18894;DHT22;9579;49.488;8.226;2024-02-21T01:48:19;11.00;99.90
18894;DHT22;9579;49.488;8.226;2024-02-21T01:51:06;11.70;99.90
18894;DHT22;9579;49.488;8.226;2024-02-21T01:53:53;11.00;99.90
18894;DHT22;9579;49.488;8.226;2024-02-21T01:56:43;10.90;99.90
18894;DHT22;9579;49.488;8.226;2024-02-21T01:59:31;11.30;99.90
18894;DHT22;9579;49.488;8.226;2024-02-21T02:02:18;11.00;99.90
18894;DHT22;9579;49.488;8.226;2024-02-21T02:05:07;10.80;99.90
18894;DHT22;9579;49.488;8.226;2024-02-21T02:22:46;10.80;99.90
18894;DHT22;9579;49.488;8.226;2024-02-21T02:25:35;11.90;99.90
18894;DHT22;9579;49.488;8.226;2024-02-21T02:28:22;11.00;99.90
18894;DHT22;9579;49.488;8.226;2024-02-21T02:31:10;10.90;99.90
18894;DHT22;9579;49.488;8.226;2024-02-21T02:33:57;10.90;99.90
18894;DHT22;9579;49.488;8.226;2024-02-21T02:36:44;10.90;99.90
18894;DHT22;9579;49.488;8.226;2024-02-21T02:39:31;12.50;99.90
18894;DHT22;9579;49.488;8.226;2024-02-21T02:42:19;10.60;99.90
18894;DHT22;9579;49.488;8.226;2024-02-21T02:45:07;10.60;99.90
18894;DHT22;9579;49.488;8.226;2024-02-21T02:47:54;10.60;99.90
18894;DHT22;9579;49.488;8.226;2024-02-21T02:50:42;12.40;99.90
18894;DHT22;9579;49.488;8.226;2024-02-21T02:53:29;10.70;99.90
18894;DHT22;9579;49.488;8.226;2024-02-21T02:56:16;11.60;99.90
18894;DHT22;9579;49.488;8.226;2024-02-21T02:59:04;10.80;99.90
18894;DHT22;9579;49.488;8.226;2024-02-21T03:01:51;10.80;99.90
18894;DHT22;9579;49.488;8.226;2024-02-21T03:04:39;10.70;99.90
18894;DHT22;9579;49.488;8.226;2024-02-21T03:07:26;10.80;99.90
18894;DHT22;9579;49.488;8.226;2024-02-21T03:10:14;10.60;99.90
18894;DHT22;9579;49.488;8.226;2024-02-21T03:13:02;10.60;99.90
18894;DHT22;9579;49.488;8.226;2024-02-21T03:15:50;10.70;99.90
18894;DHT22;9579;49.488;8.226;2024-02-21T03:18:37;11.80;99.90
18894;DHT22;9579;49.488;8.226;2024-02-21T03:21:25;10.60;99.90
18894;DHT22;9579;49.488;8.226;2024-02-21T03:24:12;10.40;99.90
18894;DHT22;9579;49.488;8.226;2024-02-21T03:26:59;11.20;99.90
18894;DHT22;9579;49.488;8.226;2024-02-21T03:29:46;10.30;99.90
18894;DHT22;9579;49.488;8.226;2024-02-21T03:32:34;11.20;99.90
18894;DHT22;9579;49.488;8.226;2024-02-21T03:35:21;10.40;99.90
18894;DHT22;9579;49.488;8.226;2024-02-21T03:38:12;10.30;99.90
18894;DHT22;9579;49.488;8.226;2024-02-21T03:40:59;10.40;99.90
18894;DHT22;9579;49.488;8.226;2024-02-21T03:43:46;10.40;99.90
18894;DHT22;9579;49.488;8.226;2024-02-21T03:46:33;10.90;99.90
18894;DHT22;9579;49.488;8.226;2024-02-21T04:00:06;10.40;99.90
18894;DHT22;9579;49.488;8.226;2024-02-21T04:02:57;10.20;99.90
18894;DHT22;9579;49.488;8.226;2024-02-21T04:05:44;10.50;99.90
18894;DHT22;9579;49.488;8.226;2024-02-21T04:08:31;10.50;99.90
18894;DHT22;9579;49.488;8.226;2024-02-21T04:11:18;10.70;99.90
18894;DHT22;9579;49.488;8.226;2024-02-21T04:14:05;10.60;99.90
18894;DHT22;9579;49.488;8.226;2024-02-21T04:16:54;10.80;99.90
18894;DHT22;9579;49.488;8.226;2024-02-21T04:19:41;10.70;99.90
18894;DHT22;9579;49.488;8.226;2024-02-21T04:22:28;10.60;99.90
18894;DHT22;9579;49.488;8.226;2024-02-21T04:25:15;10.50;99.90
18894;DHT22;9579;49.488;8.226;2024-02-21T04:28:03;10.30;99.90
18894;DHT22;9579;49.488;8.226;2024-02-21T04:30:50;10.30;99.90
18894;DHT22;9579;49.488;8.226;2024-02-21T04:33:38;10.40;99.90
18894;DHT22;9579;49.488;8.226;2024-02-21T04:36:25;10.30;99.90
18894;DHT22;9579;49.488;8.226;2024-02-21T04:39:12;10.20;99.90
18894;DHT22;9579;49.488;8.226;2024-02-21T04:41:59;10.20;99.90
18894;DHT22;9579;49.488;8.226;2024-02-21T04:44:46;10.00;99.90
18894;DHT22;9579;49.488;8.226;2024-02-21T04:47:33;10.10;99.90
18894;DHT22;9579;49.488;8.226;2024-02-21T04:50:22;10.00;99.90
18894;DHT22;9579;49.488;8.226;2024-02-21T04:53:08;10.40;99.90
18894;DHT22;9579;49.488;8.226;2024-02-21T04:55:55;10.50;99.90
18894;DHT22;9579;49.488;8.226;2024-02-21T04:58:42;10.10;99.90
18894;DHT22;9579;49.488;8.226;2024-02-21T05:01:29;10.10;99.90
18894;DHT22;9579;49.488;8.226;2024-02-21T05:04:16;10.10;99.90
18894;DHT22;9579;49.488;8.226;2024-02-21T05:07:05;10.10;99.90
18894;DHT22;9579;49.488;8.226;2024-02-21T05:09:52;10.10;99.90
18894;DHT22;9579;49.488;8.226;2024-02-21T05:12:39;10.10;99.90
18894;DHT22;9579;49.488;8.226;2024-02-21T05:15:26;10.10;99.90
18894;DHT22;9579;49.488;8.226;2024-02-21T05:18:13;10.00;99.90
18894;DHT22;9579;49.488;8.226;2024-02-21T05:21:01;10.00;99.90
18894;DHT22;9579;49.488;8.226;2024-02-21T05:23:49;10.90;99.90
18894;DHT22;9579;49.488;8.226;2024-02-21T05:26:36;10.40;99.90
18894;DHT22;9579;49.488;8.226;2024-02-21T05:29:23;9.80;99.90
18894;DHT22;9579;49.488;8.226;2024-02-21T05:32:10;11.10;99.90
18894;DHT22;9579;49.488;8.226;2024-02-21T05:34:57;9.80;99.90
18894;DHT22;9579;49.488;8.226;2024-02-21T05:37:44;9.60;99.90
18894;DHT22;9579;49.488;8.226;2024-02-21T05:40:35;9.70;99.90
18894;DHT22;9579;49.488;8.226;2024-02-21T05:43:22;9.40;99.90
18894;DHT22;9579;49.488;8.226;2024-02-21T05:46:09;9.40;99.90
18894;DHT22;9579;49.488;8.226;2024-02-21T05:48:56;9.40;99.90
18894;DHT22;9579;49.488;8.226;2024-02-21T05:51:43;9.90;99.90
18894;DHT22;9579;49.488;8.226;2024-02-21T05:54:30;9.00;99.90
18894;DHT22;9579;49.488;8.226;2024-02-21T05:57:19;9.10;99.90
18894;DHT22;9579;49.488;8.226;2024-02-21T06:00:07;9.00;99.90
18894;DHT22;9579;49.488;8.226;2024-02-21T06:02:54;9.00;99.90
18894;DHT22;9579;49.488;8.226;2024-02-21T06:05:41;9.00;99.90
18894;DHT22;9579;49.488;8.226;2024-02-21T06:08:28;9.00;99.90
18894;DHT22;9579;49.488;8.226;2024-02-21T06:11:15;9.00;99.90
18894;DHT22;9579;49.488;8.226;2024-02-21T06:14:03;9.20;99.90
18894;DHT22;9579;49.488;8.226;2024-02-21T06:16:50;9.20;99.90
18894;DHT22;9579;49.488;8.226;2024-02-21T06:19:39;9.30;99.90
18894;DHT22;9579;49.488;8.226;2024-02-21T06:22:26;10.20;99.90
18894;DHT22;9579;49.488;8.226;2024-02-21T06:25:13;9.20;99.90
18894;DHT22;9579;49.488;8.226;2024-02-21T06:28:00;9.10;99.90
18894;DHT22;9579;49.488;8.226;2024-02-21T06:30:49;9.10;99.90
18894;DHT22;9579;49.488;8.226;2024-02-21T06:33:36;9.00;99.90
18894;DHT22;9579;49.488;8.226;2024-02-21T06:36:23;9.00;99.90
18894;DHT22;9579;49.488;8.226;2024-02-21T06:39:09;9.70;99.90
18894;DHT22;9579;49.488;8.226;2024-02-21T06:41:57;9.00;99.90
18894;DHT22;9579;49.488;8.226;2024-02-21T06:44:44;9.10;99.90
18894;DHT22;9579;49.488;8.226;2024-02-21T06:47:32;9.10;99.90
18894;DHT22;9579;49.488;8.226;2024-02-21T06:50:19;9.20;99.90
18894;DHT22;9579;49.488;8.226;2024-02-21T06:53:06;9.20;99.90
18894;DHT22;9579;49.488;8.226;2024-02-21T06:55:53;9.20;99.90
18894;DHT22;9579;49.488;8.226;2024-02-21T06:58:40;9.20;99.90
18894;DHT22;9579;49.488;8.226;2024-02-21T07:01:27;9.20;99.90
18894;DHT22;9579;49.488;8.226;2024-02-21T07:04:16;9.20;99.90
18894;DHT22;9579;49.488;8.226;2024-02-21T07:07:03;10.40;99.90
18894;DHT22;9579;49.488;8.226;2024-02-21T07:09:50;9.30;99.90
18894;DHT22;9579;49.488;8.226;2024-02-21T07:12:37;9.30;99.90
18894;DHT22;9579;49.488;8.226;2024-02-21T07:15:27;9.30;99.90
18894;DHT22;9579;49.488;8.226;2024-02-21T07:18:16;9.30;99.90
18894;DHT22;9579;49.488;8.226;2024-02-21T07:21:05;9.30;99.90
18894;DHT22;9579;49.488;8.226;2024-02-21T07:23:52;9.40;99.90
18894;DHT22;9579;49.488;8.226;2024-02-21T07:26:41;9.40;99.90
18894;DHT22;9579;49.488;8.226;2024-02-21T07:29:29;9.50;99.90
18894;DHT22;9579;49.488;8.226;2024-02-21T07:32:16;9.60;99.90
18894;DHT22;9579;49.488;8.226;2024-02-21T07:35:04;9.50;99.90
18894;DHT22;9579;49.488;8.226;2024-02-21T07:37:57;9.20;99.90
18894;DHT22;9579;49.488;8.226;2024-02-21T07:40:44;9.60;99.90
18894;DHT22;9579;49.488;8.226;2024-02-21T07:43:31;10.60;99.90
18894;DHT22;9579;49.488;8.226;2024-02-21T07:46:18;9.80;99.90
18894;DHT22;9579;49.488;8.226;2024-02-21T07:49:05;9.90;99.90
18894;DHT22;9579;49.488;8.226;2024-02-21T07:51:52;10.00;99.90
18894;DHT22;9579;49.488;8.226;2024-02-21T07:54:41;10.50;99.90
18894;DHT22;9579;49.488;8.226;2024-02-21T07:57:28;9.80;99.90
18894;DHT22;9579;49.488;8.226;2024-02-21T08:00:15;9.90;99.90
18894;DHT22;9579;49.488;8.226;2024-02-21T08:03:05;9.90;99.90
18894;DHT22;9579;49.488;8.226;2024-02-21T08:05:52;10.20;99.90
18894;DHT22;9579;49.488;8.226;2024-02-21T08:08:39;10.40;99.90
18894;DHT22;9579;49.488;8.226;2024-02-21T08:11:27;10.30;99.90
18894;DHT22;9579;49.488;8.226;2024-02-21T08:14:14;10.70;99.90
18894;DHT22;9579;49.488;8.226;2024-02-21T08:17:01;10.60;99.90
18894;DHT22;9579;49.488;8.226;2024-02-21T08:19:49;10.50;99.90
18894;DHT22;9579;49.488;8.226;2024-02-21T08:22:37;12.40;99.90
18894;DHT22;9579;49.488;8.226;2024-02-21T08:25:24;12.00;99.90
18894;DHT22;9579;49.488;8.226;2024-02-21T08:28:13;10.60;99.90
18894;DHT22;9579;49.488;8.226;2024-02-21T08:31:00;10.90;99.90
18894;DHT22;9579;49.488;8.226;2024-02-21T08:33:47;10.90;99.90
18894;DHT22;9579;49.488;8.226;2024-02-21T08:36:35;11.90;99.90
18894;DHT22;9579;49.488;8.226;2024-02-21T08:39:22;10.90;99.90
18894;DHT22;9579;49.488;8.226;2024-02-21T08:42:10;10.80;99.90
18894;DHT22;9579;49.488;8.226;2024-02-21T08:44:58;12.10;99.90
18894;DHT22;9579;49.488;8.226;2024-02-21T08:47:45;10.90;99.90
18894;DHT22;9579;49.488;8.226;2024-02-21T08:50:32;10.90;99.90
18894;DHT22;9579;49.488;8.226;2024-02-21T08:53:19;11.30;99.90
18894;DHT22;9579;49.488;8.226;2024-02-21T08:56:07;11.30;99.90
18894;DHT22;9579;49.488;8.226;2024-02-21T08:58:54;11.60;99.90
18894;DHT22;9579;49.488;8.226;2024-02-21T09:01:44;12.20;99.90
18894;DHT22;9579;49.488;8.226;2024-02-21T09:04:31;12.20;99.90
18894;DHT22;9579;49.488;8.226;2024-02-21T09:07:18;12.80;99.90
18894;DHT22;9579;49.488;8.226;2024-02-21T09:10:06;11.80;99.90
18894;DHT22;9579;49.488;8.226;2024-02-21T09:12:53;11.80;99.90
18894;DHT22;9579;49.488;8.226;2024-02-21T09:15:40;12.10;99.90
18894;DHT22;9579;49.488;8.226;2024-02-21T09:18:28;13.20;99.90
18894;DHT22;9579;49.488;8.226;2024-02-21T09:21:15;12.90;99.90
18894;DHT22;9579;49.488;8.226;2024-02-21T09:24:02;12.50;99.90
18894;DHT22;9579;49.488;8.226;2024-02-21T09:26:49;12.40;99.90
18894;DHT22;9579;49.488;8.226;2024-02-21T09:29:36;12.40;99.90
18894;DHT22;9579;49.488;8.226;2024-02-21T09:32:25;12.30;99.90
18894;DHT22;9579;49.488;8.226;2024-02-21T09:35:14;12.40;99.90
18894;DHT22;9579;49.488;8.226;2024-02-21T09:38:01;12.20;99.90
18894;DHT22;9579;49.488;8.226;2024-02-21T09:40:58;11.60;99.90
18894;DHT22;9579;49.488;8.226;2024-02-21T09:43:45;12.60;99.90
18894;DHT22;9579;49.488;8.226;2024-02-21T09:46:39;11.40;99.90
18894;DHT22;9579;49.488;8.226;2024-02-21T09:49:31;12.50;99.90
18894;DHT22;9579;49.488;8.226;2024-02-21T09:52:20;12.40;99.90
18894;DHT22;9579;49.488;8.226;2024-02-21T09:55:09;12.80;99.90
18894;DHT22;9579;49.488;8.226;2024-02-21T09:57:58;12.50;99.90
18894;DHT22;9579;49.488;8.226;2024-02-21T10:00:45;12.50;99.90
18894;DHT22;9579;49.488;8.226;2024-02-21T10:03:32;12.40;99.90
18894;DHT22;9579;49.488;8.226;2024-02-21T10:06:20;13.00;99.90
18894;DHT22;9579;49.488;8.226;2024-02-21T10:09:08;12.90;99.90
18894;DHT22;9579;49.488;8.226;2024-02-21T10:11:56;12.90;99.90
18894;DHT22;9579;49.488;8.226;2024-02-21T10:15:00;12.90;99.90
18894;DHT22;9579;49.488;8.226;2024-02-21T10:17:47;14.20;99.90
18894;DHT22;9579;49.488;8.226;2024-02-21T10:20:34;13.10;99.90
18894;DHT22;9579;49.488;8.226;2024-02-21T10:23:21;12.90;99.90
18894;DHT22;9579;49.488;8.226;2024-02-21T10:26:10;13.00;99.90
18894;DHT22;9579;49.488;8.226;2024-02-21T10:28:57;13.20;99.90
18894;DHT22;9579;49.488;8.226;2024-02-21T10:31:44;14.40;99.90
18894;DHT22;9579;49.488;8.226;2024-02-21T10:34:31;13.20;99.90
18894;DHT22;9579;49.488;8.226;2024-02-21T10:37:18;13.30;99.90
18894;DHT22;9579;49.488;8.226;2024-02-21T10:40:08;14.00;99.90
18894;DHT22;9579;49.488;8.226;2024-02-21T10:42:58;13.20;99.90
18894;DHT22;9579;49.488;8.226;2024-02-21T10:45:45;14.10;99.90
18894;DHT22;9579;49.488;8.226;2024-02-21T10:48:42;13.40;99.90
18894;DHT22;9579;49.488;8.226;2024-02-21T10:51:33;13.20;99.90
18894;DHT22;9579;49.488;8.226;2024-02-21T10:54:30;13.20;99.90
18894;DHT22;9579;49.488;8.226;2024-02-21T10:57:21;13.70;99.90
18894;DHT22;9579;49.488;8.226;2024-02-21T11:00:11;13.40;99.90
18894;DHT22;9579;49.488;8.226;2024-02-21T11:02:59;13.40;99.90
18894;DHT22;9579;49.488;8.226;2024-02-21T11:05:46;13.60;99.90
18894;DHT22;9579;49.488;8.226;2024-02-21T11:08:34;13.60;99.90
18894;DHT22;9579;49.488;8.226;2024-02-21T11:11:24;13.50;99.90
18894;DHT22;9579;49.488;8.226;2024-02-21T11:14:18;13.80;99.90
18894;DHT22;9579;49.488;8.226;2024-02-21T11:17:15;14.80;99.90
18894;DHT22;9579;49.488;8.226;2024-02-21T11:20:11;13.80;99.90
18894;DHT22;9579;49.488;8.226;2024-02-21T11:22:58;14.70;99.90
18894;DHT22;9579;49.488;8.226;2024-02-21T11:25:47;14.30;99.90
18894;DHT22;9579;49.488;8.226;2024-02-21T11:28:34;13.80;99.90
18894;DHT22;9579;49.488;8.226;2024-02-21T11:31:22;13.80;99.90
18894;DHT22;9579;49.488;8.226;2024-02-21T11:34:10;13.80;99.90
18894;DHT22;9579;49.488;8.226;2024-02-21T11:36:57;13.90;99.90
18894;DHT22;9579;49.488;8.226;2024-02-21T11:39:44;13.90;99.90
18894;DHT22;9579;49.488;8.226;2024-02-21T11:42:31;14.60;99.90
18894;DHT22;9579;49.488;8.226;2024-02-21T11:45:18;14.80;99.90
18894;DHT22;9579;49.488;8.226;2024-02-21T11:48:07;14.00;99.90
18894;DHT22;9579;49.488;8.226;2024-02-21T11:50:56;14.90;99.90
18894;DHT22;9579;49.488;8.226;2024-02-21T11:53:43;14.40;99.90
18894;DHT22;9579;49.488;8.226;2024-02-21T11:56:31;13.90;99.90
18894;DHT22;9579;49.488;8.226;2024-02-21T11:59:18;15.00;99.90
18894;DHT22;9579;49.488;8.226;2024-02-21T12:02:05;14.70;99.90
18894;DHT22;9579;49.488;8.226;2024-02-21T12:04:53;14.60;99.90
18894;DHT22;9579;49.488;8.226;2024-02-21T12:07:42;14.80;99.90
18894;DHT22;9579;49.488;8.226;2024-02-21T12:10:29;15.10;99.90
18894;DHT22;9579;49.488;8.226;2024-02-21T12:13:16;15.30;99.90
18894;DHT22;9579;49.488;8.226;2024-02-21T12:16:04;14.10;99.90
18894;DHT22;9579;49.488;8.226;2024-02-21T12:18:52;14.00;99.90
18894;DHT22;9579;49.488;8.226;2024-02-21T12:21:39;14.00;99.90
18894;DHT22;9579;49.488;8.226;2024-02-21T12:24:28;14.00;99.90
18894;DHT22;9579;49.488;8.226;2024-02-21T12:27:16;15.80;99.90
18894;DHT22;9579;49.488;8.226;2024-02-21T12:30:04;14.00;99.90
18894;DHT22;9579;49.488;8.226;2024-02-21T12:32:55;13.90;99.90
18894;DHT22;9579;49.488;8.226;2024-02-21T12:35:44;13.90;99.90
18894;DHT22;9579;49.488;8.226;2024-02-21T12:38:31;13.90;99.90
18894;DHT22;9579;49.488;8.226;2024-02-21T12:41:19;14.30;99.90
18894;DHT22;9579;49.488;8.226;2024-02-21T12:44:06;14.90;99.90
18894;DHT22;9579;49.488;8.226;2024-02-21T12:46:53;14.10;99.90
18894;DHT22;9579;49.488;8.226;2024-02-21T12:49:40;14.20;99.90
18894;DHT22;9579;49.488;8.226;2024-02-21T12:52:28;13.60;99.90
18894;DHT22;9579;49.488;8.226;2024-02-21T12:55:15;14.00;99.90
18894;DHT22;9579;49.488;8.226;2024-02-21T12:58:04;13.90;99.90
18894;DHT22;9579;49.488;8.226;2024-02-21T13:00:52;13.40;99.90
18894;DHT22;9579;49.488;8.226;2024-02-21T13:03:40;13.30;99.90
18894;DHT22;9579;49.488;8.226;2024-02-21T13:06:27;14.90;99.90
18894;DHT22;9579;49.488;8.226;2024-02-21T13:09:14;13.60;99.90
18894;DHT22;9579;49.488;8.226;2024-02-21T13:12:01;12.60;99.90
18894;DHT22;9579;49.488;8.226;2024-02-21T13:14:50;15.10;99.90
18894;DHT22;9579;49.488;8.226;2024-02-21T13:17:37;13.80;99.90
18894;DHT22;9579;49.488;8.226;2024-02-21T13:20:25;13.80;99.90
18894;DHT22;9579;49.488;8.226;2024-02-21T13:23:12;13.90;99.90
18894;DHT22;9579;49.488;8.226;2024-02-21T13:25:59;13.80;99.90
18894;DHT22;9579;49.488;8.226;2024-02-21T13:28:46;13.80;99.90
18894;DHT22;9579;49.488;8.226;2024-02-21T13:31:35;15.00;99.90
18894;DHT22;9579;49.488;8.226;2024-02-21T13:34:22;13.80;99.90
18894;DHT22;9579;49.488;8.226;2024-02-21T13:37:09;14.70;99.90
18894;DHT22;9579;49.488;8.226;2024-02-21T13:39:56;13.10;99.90
18894;DHT22;9579;49.488;8.226;2024-02-21T13:42:43;14.90;99.90
18894;DHT22;9579;49.488;8.226;2024-02-21T13:45:30;13.60;99.90
18894;DHT22;9579;49.488;8.226;2024-02-21T13:48:19;13.80;99.90
18894;DHT22;9579;49.488;8.226;2024-02-21T13:51:06;14.50;99.90
18894;DHT22;9579;49.488;8.226;2024-02-21T13:53:53;13.30;99.90
18894;DHT22;9579;49.488;8.226;2024-02-21T13:56:40;13.50;99.90
18894;DHT22;9579;49.488;8.226;2024-02-21T13:59:27;12.80;99.90
18894;DHT22;9579;49.488;8.226;2024-02-21T14:02:14;12.60;99.90
18894;DHT22;9579;49.488;8.226;2024-02-21T14:05:02;14.20;99.90
18894;DHT22;9579;49.488;8.226;2024-02-21T14:07:51;13.40;99.90
18894;DHT22;9579;49.488;8.226;2024-02-21T14:10:40;13.30;99.90
18894;DHT22;9579;49.488;8.226;2024-02-21T14:13:27;13.50;99.90
18894;DHT22;9579;49.488;8.226;2024-02-21T14:16:14;13.40;99.90
18894;DHT22;9579;49.488;8.226;2024-02-21T14:19:01;15.00;99.90
18894;DHT22;9579;49.488;8.226;2024-02-21T14:21:50;13.40;99.90
18894;DHT22;9579;49.488;8.226;2024-02-21T14:24:37;13.50;99.90
18894;DHT22;9579;49.488;8.226;2024-02-21T14:27:24;14.70;99.90
18894;DHT22;9579;49.488;8.226;2024-02-21T14:30:11;14.50;99.90
18894;DHT22;9579;49.488;8.226;2024-02-21T14:32:58;13.30;99.90
18894;DHT22;9579;49.488;8.226;2024-02-21T14:35:47;14.50;99.90
18894;DHT22;9579;49.488;8.226;2024-02-21T14:38:35;15.00;99.90
18894;DHT22;9579;49.488;8.226;2024-02-21T14:41:22;13.60;99.90
18894;DHT22;9579;49.488;8.226;2024-02-21T14:44:10;13.90;99.90
18894;DHT22;9579;49.488;8.226;2024-02-21T14:46:57;13.70;99.90
18894;DHT22;9579;49.488;8.226;2024-02-21T14:49:44;14.00;99.90
18894;DHT22;9579;49.488;8.226;2024-02-21T14:52:31;13.70;99.90
18894;DHT22;9579;49.488;8.226;2024-02-21T14:55:20;14.50;99.90
18894;DHT22;9579;49.488;8.226;2024-02-21T14:58:07;14.00;99.90
18894;DHT22;9579;49.488;8.226;2024-02-21T15:00:54;14.70;99.90
18894;DHT22;9579;49.488;8.226;2024-02-21T15:03:41;14.60;99.90
18894;DHT22;9579;49.488;8.226;2024-02-21T15:06:28;14.10;99.90
18894;DHT22;9579;49.488;8.226;2024-02-21T15:09:17;14.30;99.90
18894;DHT22;9579;49.488;8.226;2024-02-21T15:12:06;13.10;99.90
18894;DHT22;9579;49.488;8.226;2024-02-21T15:14:53;12.90;99.90
18894;DHT22;9579;49.488;8.226;2024-02-21T15:17:40;13.80;99.90
18894;DHT22;9579;49.488;8.226;2024-02-21T15:20:28;13.00;99.90
18894;DHT22;9579;49.488;8.226;2024-02-21T15:23:15;13.00;99.90
18894;DHT22;9579;49.488;8.226;2024-02-21T15:26:03;13.80;99.90
18894;DHT22;9579;49.488;8.226;2024-02-21T15:28:52;13.90;99.90
18894;DHT22;9579;49.488;8.226;2024-02-21T15:31:39;13.70;99.90
18894;DHT22;9579;49.488;8.226;2024-02-21T15:34:29;14.30;99.90
18894;DHT22;9579;49.488;8.226;2024-02-21T15:37:16;13.20;99.90
18894;DHT22;9579;49.488;8.226;2024-02-21T15:40:04;14.00;99.90
18894;DHT22;9579;49.488;8.226;2024-02-21T15:42:52;12.60;99.90
18894;DHT22;9579;49.488;8.226;2024-02-21T15:45:41;14.30;99.90
18894;DHT22;9579;49.488;8.226;2024-02-21T15:48:28;12.50;99.90
18894;DHT22;9579;49.488;8.226;2024-02-21T15:51:16;13.40;99.90
18894;DHT22;9579;49.488;8.226;2024-02-21T15:54:03;13.20;99.90
18894;DHT22;9579;49.488;8.226;2024-02-21T15:56:50;12.40;99.90
18894;DHT22;9579;49.488;8.226;2024-02-21T15:59:37;12.50;99.90
18894;DHT22;9579;49.488;8.226;2024-02-21T16:02:26;13.30;99.90
18894;DHT22;9579;49.488;8.226;2024-02-21T16:05:13;13.90;99.90
18894;DHT22;9579;49.488;8.226;2024-02-21T16:08:02;13.20;99.90
18894;DHT22;9579;49.488;8.226;2024-02-21T16:10:49;12.10;99.90
18894;DHT22;9579;49.488;8.226;2024-02-21T16:13:36;12.20;99.90
18894;DHT22;9579;49.488;8.226;2024-02-21T16:16:23;12.90;99.90
18894;DHT22;9579;49.488;8.226;2024-02-21T16:19:12;12.70;99.90
18894;DHT22;9579;49.488;8.226;2024-02-21T16:21:59;12.20;99.90
18894;DHT22;9579;49.488;8.226;2024-02-21T16:24:50;12.10;99.90
18894;DHT22;9579;49.488;8.226;2024-02-21T16:27:39;12.00;99.90
18894;DHT22;9579;49.488;8.226;2024-02-21T16:30:27;13.00;99.90
18894;DHT22;9579;49.488;8.226;2024-02-21T16:33:14;12.10;99.90
18894;DHT22;9579;49.488;8.226;2024-02-21T16:36:03;12.80;99.90
18894;DHT22;9579;49.488;8.226;2024-02-21T16:38:53;11.80;99.90
18894;DHT22;9579;49.488;8.226;2024-02-21T16:41:40;13.40;99.90
18894;DHT22;9579;49.488;8.226;2024-02-21T16:44:27;12.80;99.90
18894;DHT22;9579;49.488;8.226;2024-02-21T16:47:14;11.80;99.90
18894;DHT22;9579;49.488;8.226;2024-02-21T16:50:02;13.20;99.90
18894;DHT22;9579;49.488;8.226;2024-02-21T16:52:52;11.70;99.90
18894;DHT22;9579;49.488;8.226;2024-02-21T16:55:39;11.90;99.90
18894;DHT22;9579;49.488;8.226;2024-02-21T16:58:26;13.20;99.90
18894;DHT22;9579;49.488;8.226;2024-02-21T17:01:16;13.10;99.90
18894;DHT22;9579;49.488;8.226;2024-02-21T17:04:03;11.90;99.90
18894;DHT22;9579;49.488;8.226;2024-02-21T17:06:52;11.30;99.90
18894;DHT22;9579;49.488;8.226;2024-02-21T17:09:41;11.00;99.90
18894;DHT22;9579;49.488;8.226;2024-02-21T17:12:28;10.90;99.90
18894;DHT22;9579;49.488;8.226;2024-02-21T17:15:16;11.50;99.90
18894;DHT22;9579;49.488;8.226;2024-02-21T17:18:03;12.00;99.90
18894;DHT22;9579;49.488;8.226;2024-02-21T17:20:51;11.50;99.90
18894;DHT22;9579;49.488;8.226;2024-02-21T17:23:38;11.90;99.90
18894;DHT22;9579;49.488;8.226;2024-02-21T17:26:26;11.50;99.90
18894;DHT22;9579;49.488;8.226;2024-02-21T17:29:14;12.40;99.90
18894;DHT22;9579;49.488;8.226;2024-02-21T17:32:01;11.90;99.90
18894;DHT22;9579;49.488;8.226;2024-02-21T17:34:48;12.10;99.90
18894;DHT22;9579;49.488;8.226;2024-02-21T17:37:36;13.10;99.90
18894;DHT22;9579;49.488;8.226;2024-02-21T17:40:23;12.30;99.90
18894;DHT22;9579;49.488;8.226;2024-02-21T17:43:12;11.60;99.90
18894;DHT22;9579;49.488;8.226;2024-02-21T17:46:02;11.50;99.90
18894;DHT22;9579;49.488;8.226;2024-02-21T17:48:49;11.50;99.90
18894;DHT22;9579;49.488;8.226;2024-02-21T17:51:37;12.50;99.90
18894;DHT22;9579;49.488;8.226;2024-02-21T17:54:24;11.40;99.90
18894;DHT22;9579;49.488;8.226;2024-02-21T17:57:11;11.40;99.90
18894;DHT22;9579;49.488;8.226;2024-02-21T17:59:59;12.80;99.90
18894;DHT22;9579;49.488;8.226;2024-02-21T18:02:47;11.90;99.90
18894;DHT22;9579;49.488;8.226;2024-02-21T18:05:35;12.10;99.90
18894;DHT22;9579;49.488;8.226;2024-02-21T18:08:22;12.70;99.90
18894;DHT22;9579;49.488;8.226;2024-02-21T18:11:09;11.00;99.90
18894;DHT22;9579;49.488;8.226;2024-02-21T18:13:57;11.40;99.90
18894;DHT22;9579;49.488;8.226;2024-02-21T18:16:47;11.50;99.90
18894;DHT22;9579;49.488;8.226;2024-02-21T18:19:34;11.50;99.90
18894;DHT22;9579;49.488;8.226;2024-02-21T18:22:21;11.50;99.90
18894;DHT22;9579;49.488;8.226;2024-02-21T18:25:10;11.50;99.90